createdAt,value
2018-06-15T00:01:19.384Z,1017.25
2018-06-15T00:02:46.758Z,1017.23
2018-06-15T00:04:14.148Z,1017.25
2018-06-15T00:05:41.681Z,1017.24
2018-06-15T00:07:09.141Z,1017.25
2018-06-15T00:08:36.484Z,1017.27
2018-06-15T00:10:04.173Z,1017.28
2018-06-15T00:11:31.652Z,1017.28
2018-06-15T00:12:59.073Z,1017.26
2018-06-15T00:14:26.569Z,1017.28
2018-06-15T00:15:53.898Z,1017.30
2018-06-15T00:17:21.284Z,1017.33
2018-06-15T00:18:48.735Z,1017.34
2018-06-15T00:20:16.192Z,1017.36
2018-06-15T00:21:43.664Z,1017.35
2018-06-15T00:23:11.036Z,1017.37
2018-06-15T00:24:38.440Z,1017.40
2018-06-15T00:26:06.005Z,1017.39
2018-06-15T00:27:33.444Z,1017.43
2018-06-15T00:29:00.868Z,1017.46
2018-06-15T00:30:28.464Z,1017.46
2018-06-15T00:31:56.052Z,1017.48
2018-06-15T00:33:23.525Z,1017.50
2018-06-15T00:34:51.059Z,1017.52
2018-06-15T00:36:18.593Z,1017.52
2018-06-15T00:37:46.380Z,1017.54
2018-06-15T00:39:13.731Z,1017.54
2018-06-15T00:40:41.187Z,1017.53
2018-06-15T00:42:08.873Z,1017.56
2018-06-15T00:43:36.356Z,1017.56
2018-06-15T00:45:03.842Z,1017.59
2018-06-15T00:46:31.282Z,1017.57
2018-06-15T00:47:58.836Z,1017.58
2018-06-15T00:49:26.140Z,1017.57
2018-06-15T00:50:53.481Z,1017.59
2018-06-15T00:52:20.939Z,1017.59
2018-06-15T00:53:48.548Z,1017.59
2018-06-15T00:55:15.980Z,1017.59
2018-06-15T00:56:43.403Z,1017.59
2018-06-15T00:58:10.914Z,1017.61
2018-06-15T00:59:38.468Z,1017.61
2018-06-15T01:01:05.808Z,1017.61
2018-06-15T01:02:33.135Z,1017.61
2018-06-15T01:04:00.621Z,1017.60
2018-06-15T01:05:28.217Z,1017.60
2018-06-15T01:06:55.653Z,1017.62
2018-06-15T01:08:23.035Z,1017.63
2018-06-15T01:09:50.442Z,1017.66
2018-06-15T01:11:17.784Z,1017.65
2018-06-15T01:12:45.255Z,1017.66
2018-06-15T01:14:12.669Z,1017.65
2018-06-15T01:15:40.246Z,1017.63
2018-06-15T01:17:07.708Z,1017.63
2018-06-15T01:18:35.083Z,1017.63
2018-06-15T01:20:02.688Z,1017.65
2018-06-15T01:21:30.024Z,1017.65
2018-06-15T01:22:57.735Z,1017.67
2018-06-15T01:24:25.187Z,1017.68
2018-06-15T01:25:52.657Z,1017.70
2018-06-15T01:27:20.128Z,1017.72
2018-06-15T01:28:47.566Z,1017.73
2018-06-15T01:30:15.187Z,1017.71
2018-06-15T01:31:42.577Z,1017.72
2018-06-15T01:33:10.216Z,1017.72
2018-06-15T01:34:37.342Z,1017.74
2018-06-15T01:36:04.716Z,1017.73
2018-06-15T01:37:32.026Z,1017.74
2018-06-15T01:38:59.301Z,1017.74
2018-06-15T01:40:26.711Z,1017.73
2018-06-15T01:41:54.098Z,1017.75
2018-06-15T01:43:21.713Z,1017.79
2018-06-15T01:44:49.194Z,1017.78
2018-06-15T01:46:16.772Z,1017.79
2018-06-15T01:47:44.140Z,1017.78
2018-06-15T01:49:11.778Z,1017.78
2018-06-15T01:50:38.893Z,1017.78
2018-06-15T01:52:06.407Z,1017.80
2018-06-15T01:53:34.005Z,1017.82
2018-06-15T01:55:01.457Z,1017.83
2018-06-15T01:56:28.931Z,1017.84
2018-06-15T01:57:56.483Z,1017.83
2018-06-15T01:59:23.691Z,1017.81
2018-06-15T02:00:51.327Z,1017.82
2018-06-15T02:02:18.720Z,1017.82
2018-06-15T02:03:46.017Z,1017.82
2018-06-15T02:05:13.698Z,1017.81
2018-06-15T02:06:41.035Z,1017.81
2018-06-15T02:08:08.255Z,1017.82
2018-06-15T02:09:35.775Z,1017.83
2018-06-15T02:11:03.211Z,1017.82
2018-06-15T02:12:30.883Z,1017.80
2018-06-15T02:13:58.336Z,1017.81
2018-06-15T02:15:25.772Z,1017.80
2018-06-15T02:16:53.119Z,1017.83
2018-06-15T02:18:20.629Z,1017.84
2018-06-15T02:19:48.073Z,1017.84
2018-06-15T02:21:15.583Z,1017.85
2018-06-15T02:22:43.166Z,1017.83
2018-06-15T02:24:10.666Z,1017.84
2018-06-15T02:25:37.997Z,1017.82
2018-06-15T02:27:05.421Z,1017.84
2018-06-15T02:28:33.142Z,1017.82
2018-06-15T02:30:00.546Z,1017.83
2018-06-15T02:31:27.830Z,1017.85
2018-06-15T02:32:55.145Z,1017.87
2018-06-15T02:34:22.790Z,1017.87
2018-06-15T02:35:50.291Z,1017.91
2018-06-15T02:37:17.958Z,1017.89
2018-06-15T02:38:45.278Z,1017.87
2018-06-15T02:40:12.578Z,1017.89
2018-06-15T02:41:40.045Z,1017.85
2018-06-15T02:43:07.552Z,1017.85
2018-06-15T02:44:34.944Z,1017.85
2018-06-15T02:46:02.460Z,1017.85
2018-06-15T02:47:29.887Z,1017.88
2018-06-15T02:48:57.387Z,1017.88
2018-06-15T02:50:24.821Z,1017.90
2018-06-15T02:51:52.279Z,1017.92
2018-06-15T02:53:19.819Z,1017.94
2018-06-15T02:54:47.468Z,1017.94
2018-06-15T02:56:14.929Z,1017.95
2018-06-15T02:57:42.581Z,1017.98
2018-06-15T02:59:10.121Z,1017.97
2018-06-15T03:00:37.398Z,1017.99
2018-06-15T03:02:04.832Z,1018.00
2018-06-15T03:03:32.402Z,1018.02
2018-06-15T03:04:59.932Z,1018.07
2018-06-15T03:06:27.529Z,1018.05
2018-06-15T03:07:55.039Z,1018.05
2018-06-15T03:09:22.506Z,1018.03
2018-06-15T03:10:49.911Z,1018.03
2018-06-15T03:12:17.195Z,1018.04
2018-06-15T03:13:44.677Z,1018.03
2018-06-15T03:15:12.250Z,1018.03
2018-06-15T03:16:39.628Z,1018.03
2018-06-15T03:18:06.963Z,1018.01
2018-06-15T03:19:34.547Z,1018.05
2018-06-15T03:21:01.886Z,1018.09
2018-06-15T03:22:29.287Z,1018.10
2018-06-15T03:23:56.966Z,1018.10
2018-06-15T03:25:24.371Z,1018.08
2018-06-15T03:26:51.930Z,1018.08
2018-06-15T03:28:19.516Z,1018.08
2018-06-15T03:29:47.027Z,1018.09
2018-06-15T03:31:14.529Z,1018.08
2018-06-15T03:32:41.998Z,1018.08
2018-06-15T03:34:09.398Z,1018.10
2018-06-15T03:35:36.916Z,1018.13
2018-06-15T03:37:04.337Z,1018.15
2018-06-15T03:38:31.947Z,1018.14
2018-06-15T03:39:59.622Z,1018.17
2018-06-15T03:41:27.016Z,1018.17
2018-06-15T03:42:54.691Z,1018.15
2018-06-15T03:44:22.030Z,1018.16
2018-06-15T03:45:49.678Z,1018.16
2018-06-15T03:47:17.285Z,1018.16
2018-06-15T03:48:44.484Z,1018.17
2018-06-15T03:50:11.994Z,1018.16
2018-06-15T03:51:39.525Z,1018.15
2018-06-15T03:53:07.098Z,1018.16
2018-06-15T03:54:34.396Z,1018.19
2018-06-15T03:56:02.037Z,1018.20
2018-06-15T03:57:29.467Z,1018.21
2018-06-15T03:58:56.868Z,1018.20
2018-06-15T04:00:24.246Z,1018.23
2018-06-15T04:01:51.677Z,1018.28
2018-06-15T04:03:19.316Z,1018.29
2018-06-15T04:04:46.523Z,1018.27
2018-06-15T04:06:14.096Z,1018.28
2018-06-15T04:07:41.646Z,1018.29
2018-06-15T04:09:09.161Z,1018.27
2018-06-15T04:10:36.528Z,1018.28
2018-06-15T04:12:04.005Z,1018.28
2018-06-15T04:13:31.214Z,1018.28
2018-06-15T04:14:58.629Z,1018.32
2018-06-15T04:16:26.216Z,1018.34
2018-06-15T04:17:53.695Z,1018.36
2018-06-15T04:19:20.938Z,1018.35
2018-06-15T04:20:48.468Z,1018.32
2018-06-15T04:22:15.880Z,1018.34
2018-06-15T04:23:43.276Z,1018.36
2018-06-15T04:25:10.865Z,1018.37
2018-06-15T04:26:38.242Z,1018.36
2018-06-15T04:28:05.706Z,1018.38
2018-06-15T04:29:33.155Z,1018.37
2018-06-15T04:31:00.606Z,1018.37
2018-06-15T04:32:27.964Z,1018.36
2018-06-15T04:33:55.556Z,1018.36
2018-06-15T04:35:23.140Z,1018.38
2018-06-15T04:36:50.695Z,1018.40
2018-06-15T04:38:18.154Z,1018.40
2018-06-15T04:39:45.639Z,1018.44
2018-06-15T04:41:13.104Z,1018.46
2018-06-15T04:42:40.452Z,1018.48
2018-06-15T04:44:07.798Z,1018.47
2018-06-15T04:45:35.128Z,1018.49
2018-06-15T04:47:02.780Z,1018.50
2018-06-15T04:48:30.399Z,1018.51
2018-06-15T04:49:57.825Z,1018.53
2018-06-15T04:51:25.379Z,1018.55
2018-06-15T04:52:52.951Z,1018.56
2018-06-15T04:54:20.421Z,1018.58
2018-06-15T04:55:47.891Z,1018.62
2018-06-15T04:57:15.081Z,1018.64
2018-06-15T04:58:42.589Z,1018.65
2018-06-15T05:00:10.172Z,1018.66
2018-06-15T05:01:37.299Z,1018.67
2018-06-15T05:03:04.765Z,1018.66
2018-06-15T05:04:32.381Z,1018.69
2018-06-15T05:05:59.879Z,1018.73
2018-06-15T05:07:27.519Z,1018.74
2018-06-15T05:08:54.832Z,1018.75
2018-06-15T05:10:22.450Z,1018.79
2018-06-15T05:11:49.972Z,1018.80
2018-06-15T05:13:17.500Z,1018.85
2018-06-15T05:14:44.971Z,1018.87
2018-06-15T05:16:12.438Z,1018.90
2018-06-15T05:17:39.682Z,1018.93
2018-06-15T05:19:07.164Z,1018.95
2018-06-15T05:20:34.699Z,1018.96
2018-06-15T05:22:02.134Z,1018.96
2018-06-15T05:23:29.639Z,1018.94
2018-06-15T05:24:57.013Z,1018.98
2018-06-15T05:26:24.562Z,1018.99
2018-06-15T05:27:52.075Z,1018.99
2018-06-15T05:29:19.521Z,1018.98
2018-06-15T05:30:46.969Z,1018.99
2018-06-15T05:32:14.399Z,1019.02
2018-06-15T05:33:41.853Z,1019.03
2018-06-15T05:35:09.443Z,1019.03
2018-06-15T05:36:36.717Z,1019.07
2018-06-15T05:38:03.920Z,1019.09
2018-06-15T05:39:31.279Z,1019.13
2018-06-15T05:40:58.393Z,1019.14
2018-06-15T05:42:25.743Z,1019.16
2018-06-15T05:43:53.187Z,1019.12
2018-06-15T05:45:20.520Z,1019.13
2018-06-15T05:46:48.042Z,1019.14
2018-06-15T05:48:15.564Z,1019.15
2018-06-15T05:49:42.951Z,1019.17
2018-06-15T05:51:10.408Z,1019.18
2018-06-15T05:52:37.710Z,1019.19
2018-06-15T05:54:05.486Z,1019.20
2018-06-15T05:55:32.926Z,1019.23
2018-06-15T05:57:00.549Z,1019.24
2018-06-15T05:58:28.076Z,1019.22
2018-06-15T05:59:55.549Z,1019.24
2018-06-15T06:01:22.964Z,1019.25
2018-06-15T06:02:50.613Z,1019.25
2018-06-15T06:04:18.207Z,1019.25
2018-06-15T06:05:45.591Z,1019.26
2018-06-15T06:07:13.159Z,1019.29
2018-06-15T06:08:40.690Z,1019.27
2018-06-15T06:10:08.200Z,1019.28
2018-06-15T06:11:35.398Z,1019.29
2018-06-15T06:13:02.861Z,1019.32
2018-06-15T06:14:30.564Z,1019.32
2018-06-15T06:15:58.048Z,1019.34
2018-06-15T06:17:25.667Z,1019.33
2018-06-15T06:18:53.211Z,1019.35
2018-06-15T06:20:20.824Z,1019.35
2018-06-15T06:21:48.369Z,1019.37
2018-06-15T06:23:15.974Z,1019.37
2018-06-15T06:24:43.568Z,1019.39
2018-06-15T06:26:10.752Z,1019.41
2018-06-15T06:27:38.260Z,1019.41
2018-06-15T06:29:05.735Z,1019.44
2018-06-15T06:30:33.076Z,1019.44
2018-06-15T06:32:00.764Z,1019.43
2018-06-15T06:33:28.404Z,1019.43
2018-06-15T06:34:55.761Z,1019.45
2018-06-15T06:36:23.226Z,1019.46
2018-06-15T06:37:50.522Z,1019.48
2018-06-15T06:39:17.957Z,1019.49
2018-06-15T06:40:45.426Z,1019.52
2018-06-15T06:42:12.889Z,1019.51
2018-06-15T06:43:40.457Z,1019.54
2018-06-15T06:45:07.716Z,1019.52
2018-06-15T06:46:35.349Z,1019.53
2018-06-15T06:48:02.907Z,1019.51
2018-06-15T06:49:30.524Z,1019.50
2018-06-15T06:50:57.920Z,1019.53
2018-06-15T06:52:25.446Z,1019.55
2018-06-15T06:53:53.021Z,1019.54
2018-06-15T06:55:20.535Z,1019.54
2018-06-15T06:56:47.964Z,1019.59
2018-06-15T06:58:15.608Z,1019.61
2018-06-15T06:59:43.060Z,1019.64
2018-06-15T07:01:10.574Z,1019.65
2018-06-15T07:02:37.853Z,1019.66
2018-06-15T07:04:05.266Z,1019.64
2018-06-15T07:05:32.925Z,1019.65
2018-06-15T07:07:00.425Z,1019.67
2018-06-15T07:08:27.922Z,1019.64
2018-06-15T07:09:55.326Z,1019.60
2018-06-15T07:11:22.899Z,1019.59
2018-06-15T07:12:50.396Z,1019.53
2018-06-15T07:14:18.226Z,1019.53
2018-06-15T07:15:45.676Z,1019.52
2018-06-15T07:17:12.952Z,1019.54
2018-06-15T07:18:40.438Z,1019.55
2018-06-15T07:20:07.814Z,1019.56
2018-06-15T07:21:35.126Z,1019.55
2018-06-15T07:23:02.759Z,1019.52
2018-06-15T07:24:30.155Z,1019.51
2018-06-15T07:25:57.744Z,1019.50
2018-06-15T07:27:25.145Z,1019.49
2018-06-15T07:28:52.932Z,1019.49
2018-06-15T07:30:20.471Z,1019.50
2018-06-15T07:31:48.078Z,1019.50
2018-06-15T07:33:15.483Z,1019.53
2018-06-15T07:34:42.994Z,1019.56
2018-06-15T07:36:10.565Z,1019.55
2018-06-15T07:37:37.944Z,1019.58
2018-06-15T07:39:05.346Z,1019.60
2018-06-15T07:40:32.944Z,1019.57
2018-06-15T07:42:00.468Z,1019.54
2018-06-15T07:43:27.979Z,1019.51
2018-06-15T07:44:55.393Z,1019.52
2018-06-15T07:46:23.028Z,1019.54
2018-06-15T07:47:50.598Z,1019.53
2018-06-15T07:49:17.660Z,1019.55
2018-06-15T07:50:45.173Z,1019.54
2018-06-15T07:52:12.612Z,1019.57
2018-06-15T07:53:40.116Z,1019.58
2018-06-15T07:55:07.691Z,1019.56
2018-06-15T07:56:35.213Z,1019.58
2018-06-15T07:58:02.706Z,1019.57
2018-06-15T07:59:30.457Z,1019.58
2018-06-15T08:00:57.848Z,1019.62
2018-06-15T08:02:25.431Z,1019.69
2018-06-15T08:03:52.923Z,1019.74
2018-06-15T08:05:20.672Z,1019.73
2018-06-15T08:06:48.087Z,1019.74
2018-06-15T08:08:15.625Z,1019.78
2018-06-15T08:09:43.279Z,1019.80
2018-06-15T08:11:10.697Z,1019.87
2018-06-15T08:12:38.023Z,1019.92
2018-06-15T08:14:05.635Z,1019.92
2018-06-15T08:15:33.363Z,1019.93
2018-06-15T08:17:01.023Z,1019.93
2018-06-15T08:18:28.343Z,1019.93
2018-06-15T08:19:55.697Z,1019.90
2018-06-15T08:21:23.124Z,1019.90
2018-06-15T08:22:50.512Z,1019.90
2018-06-15T08:24:18.064Z,1019.88
2018-06-15T08:25:45.758Z,1019.87
2018-06-15T08:27:13.305Z,1019.84
2018-06-15T08:28:40.820Z,1019.83
2018-06-15T08:30:08.056Z,1019.81
2018-06-15T08:31:35.776Z,1019.73
2018-06-15T08:33:03.229Z,1019.71
2018-06-15T08:34:30.895Z,1019.73
2018-06-15T08:35:58.437Z,1019.73
2018-06-15T08:37:26.090Z,1019.72
2018-06-15T08:38:53.643Z,1019.74
2018-06-15T08:40:21.049Z,1019.67
2018-06-15T08:41:48.402Z,1019.70
2018-06-15T08:43:15.924Z,1019.71
2018-06-15T08:44:43.450Z,1019.75
2018-06-15T08:46:10.835Z,1019.75
2018-06-15T08:47:38.331Z,1019.75
2018-06-15T08:49:05.904Z,1019.74
2018-06-15T08:50:33.369Z,1019.76
2018-06-15T08:52:00.747Z,1019.76
2018-06-15T08:53:28.266Z,1019.80
2018-06-15T08:54:55.741Z,1019.84
2018-06-15T08:56:23.334Z,1019.81
2018-06-15T08:57:50.780Z,1019.77
2018-06-15T08:59:18.339Z,1019.72
2018-06-15T09:00:45.993Z,1019.71
2018-06-15T09:02:13.419Z,1019.70
2018-06-15T09:03:41.016Z,1019.68
2018-06-15T09:05:08.344Z,1019.68
2018-06-15T09:06:35.854Z,1019.68
2018-06-15T09:08:03.379Z,1019.70
2018-06-15T09:09:30.844Z,1019.74
2018-06-15T09:10:58.357Z,1019.74
2018-06-15T09:12:25.941Z,1019.72
2018-06-15T09:13:53.487Z,1019.71
2018-06-15T09:15:21.083Z,1019.72
2018-06-15T09:16:48.509Z,1019.74
2018-06-15T09:18:16.268Z,1019.72
2018-06-15T09:19:43.871Z,1019.69
2018-06-15T09:21:11.476Z,1019.70
2018-06-15T09:22:39.036Z,1019.68
2018-06-15T09:24:06.518Z,1019.70
2018-06-15T09:25:34.156Z,1019.76
2018-06-15T09:27:01.742Z,1019.75
2018-06-15T09:28:29.369Z,1019.78
2018-06-15T09:29:56.911Z,1019.78
2018-06-15T09:31:24.596Z,1019.79
2018-06-15T09:32:52.128Z,1019.79
2018-06-15T09:34:19.573Z,1019.76
2018-06-15T09:35:47.158Z,1019.75
2018-06-15T09:37:14.448Z,1019.76
2018-06-15T09:38:41.940Z,1019.76
2018-06-15T09:40:09.658Z,1019.76
2018-06-15T09:41:37.048Z,1019.77
2018-06-15T09:43:04.450Z,1019.77
2018-06-15T09:44:32.018Z,1019.83
2018-06-15T09:46:09.361Z,1019.80
2018-06-15T09:47:36.739Z,1019.83
2018-06-15T09:49:04.214Z,1019.82
2018-06-15T09:50:31.903Z,1019.85
2018-06-15T09:51:58.866Z,1019.86
2018-06-15T09:53:26.545Z,1019.84
2018-06-15T09:54:54.016Z,1019.84
2018-06-15T09:56:21.576Z,1019.81
2018-06-15T09:57:49.182Z,1019.79
2018-06-15T09:59:16.585Z,1019.76
2018-06-15T10:00:44.291Z,1019.79
2018-06-15T10:02:11.853Z,1019.77
2018-06-15T10:03:39.428Z,1019.75
2018-06-15T10:05:06.804Z,1019.78
2018-06-15T10:06:34.322Z,1019.76
2018-06-15T10:08:02.353Z,1019.78
2018-06-15T10:09:29.975Z,1019.78
2018-06-15T10:10:57.531Z,1019.81
2018-06-15T10:12:25.214Z,1019.81
2018-06-15T10:13:52.610Z,1019.84
2018-06-15T10:15:20.019Z,1019.85
2018-06-15T10:16:47.479Z,1019.85
2018-06-15T10:18:14.988Z,1019.85
2018-06-15T10:19:42.458Z,1019.86
2018-06-15T10:21:10.004Z,1019.86
2018-06-15T10:22:37.582Z,1019.86
2018-06-15T10:24:05.215Z,1019.86
2018-06-15T10:25:32.789Z,1019.84
2018-06-15T10:27:00.443Z,1019.78
2018-06-15T10:28:27.809Z,1019.79
2018-06-15T10:29:55.355Z,1019.82
2018-06-15T10:31:22.843Z,1019.85
2018-06-15T10:32:50.315Z,1019.83
2018-06-15T10:34:17.935Z,1019.82
2018-06-15T10:35:45.336Z,1019.83
2018-06-15T10:37:12.802Z,1019.85
2018-06-15T10:38:40.565Z,1019.87
2018-06-15T10:40:07.836Z,1019.88
2018-06-15T10:41:35.373Z,1019.88
2018-06-15T10:43:02.878Z,1019.86
2018-06-15T10:44:30.355Z,1019.87
2018-06-15T10:45:58.050Z,1019.81
2018-06-15T10:47:25.620Z,1019.77
2018-06-15T10:48:53.183Z,1019.77
2018-06-15T10:50:20.491Z,1019.82
2018-06-15T10:51:48.041Z,1019.85
2018-06-15T10:53:15.708Z,1019.82
2018-06-15T10:54:43.155Z,1019.82
2018-06-15T10:56:10.843Z,1019.82
2018-06-15T10:57:38.388Z,1019.81
2018-06-15T10:59:05.768Z,1019.84
2018-06-15T11:00:33.395Z,1019.86
2018-06-15T11:02:00.856Z,1019.82
2018-06-15T11:03:28.430Z,1019.85
2018-06-15T11:04:55.930Z,1019.85
2018-06-15T11:06:23.557Z,1019.86
2018-06-15T11:07:51.114Z,1019.81
2018-06-15T11:09:18.714Z,1019.82
2018-06-15T11:10:46.234Z,1019.75
2018-06-15T11:12:14.053Z,1019.74
2018-06-15T11:13:41.449Z,1019.75
2018-06-15T11:15:08.975Z,1019.75
2018-06-15T11:16:36.744Z,1019.70
2018-06-15T11:18:04.290Z,1019.72
2018-06-15T11:19:32.064Z,1019.75
2018-06-15T11:20:59.825Z,1019.75
2018-06-15T11:22:27.375Z,1019.71
2018-06-15T11:23:54.925Z,1019.64
2018-06-15T11:25:22.298Z,1019.65
2018-06-15T11:26:49.754Z,1019.66
2018-06-15T11:28:17.395Z,1019.62
2018-06-15T11:29:44.927Z,1019.63
2018-06-15T11:31:12.609Z,1019.66
2018-06-15T11:32:40.200Z,1019.63
2018-06-15T11:34:07.857Z,1019.61
2018-06-15T11:35:35.525Z,1019.58
2018-06-15T11:37:03.484Z,1019.55
2018-06-15T11:38:31.181Z,1019.56
2018-06-15T11:39:58.857Z,1019.53
2018-06-15T11:41:26.538Z,1019.51
2018-06-15T11:42:54.212Z,1019.54
2018-06-15T11:44:21.854Z,1019.56
2018-06-15T11:45:49.367Z,1019.52
2018-06-15T11:47:16.900Z,1019.51
2018-06-15T11:48:44.433Z,1019.50
2018-06-15T11:50:12.240Z,1019.46
2018-06-15T11:51:39.940Z,1019.46
2018-06-15T11:53:07.558Z,1019.48
2018-06-15T11:54:35.237Z,1019.49
2018-06-15T11:56:02.878Z,1019.44
2018-06-15T11:57:30.627Z,1019.42
2018-06-15T11:58:58.376Z,1019.38
2018-06-15T12:00:26.120Z,1019.35
2018-06-15T12:01:53.714Z,1019.33
2018-06-15T12:03:21.080Z,1019.33
2018-06-15T12:04:48.845Z,1019.35
2018-06-15T12:06:16.391Z,1019.34
2018-06-15T12:07:44.034Z,1019.33
2018-06-15T12:09:11.745Z,1019.34
2018-06-15T12:10:39.229Z,1019.34
2018-06-15T12:12:06.827Z,1019.36
2018-06-15T12:13:34.650Z,1019.37
2018-06-15T12:15:02.274Z,1019.35
2018-06-15T12:16:29.925Z,1019.34
2018-06-15T12:17:57.338Z,1019.33
2018-06-15T12:19:24.924Z,1019.35
2018-06-15T12:20:52.308Z,1019.33
2018-06-15T12:22:19.978Z,1019.36
2018-06-15T12:23:47.578Z,1019.32
2018-06-15T12:25:15.013Z,1019.38
2018-06-15T12:26:42.758Z,1019.35
2018-06-15T12:28:10.367Z,1019.33
2018-06-15T12:29:37.786Z,1019.36
2018-06-15T12:31:05.498Z,1019.36
2018-06-15T12:32:33.150Z,1019.33
2018-06-15T12:34:00.837Z,1019.34
2018-06-15T12:35:28.398Z,1019.28
2018-06-15T12:36:55.965Z,1019.37
2018-06-15T12:38:23.647Z,1019.41
2018-06-15T12:39:51.269Z,1019.35
2018-06-15T12:41:18.669Z,1019.31
2018-06-15T12:42:46.498Z,1019.36
2018-06-15T12:44:13.950Z,1019.36
2018-06-15T12:45:41.532Z,1019.38
2018-06-15T12:47:08.988Z,1019.39
2018-06-15T12:48:36.629Z,1019.35
2018-06-15T12:50:04.226Z,1019.39
2018-06-15T12:51:31.695Z,1019.42
2018-06-15T12:52:59.475Z,1019.43
2018-06-15T12:54:27.105Z,1019.44
2018-06-15T12:55:54.678Z,1019.48
2018-06-15T12:57:22.228Z,1019.50
2018-06-15T12:58:49.794Z,1019.49
2018-06-15T13:00:17.470Z,1019.46
2018-06-15T13:01:44.971Z,1019.45
2018-06-15T13:03:12.541Z,1019.50
2018-06-15T13:04:40.155Z,1019.49
2018-06-15T13:06:07.909Z,1019.50
2018-06-15T13:07:35.628Z,1019.49
2018-06-15T13:09:03.181Z,1019.48
2018-06-15T13:10:30.823Z,1019.47
2018-06-15T13:11:58.331Z,1019.52
2018-06-15T13:13:25.936Z,1019.53
2018-06-15T13:14:53.521Z,1019.53
2018-06-15T13:16:20.983Z,1019.52
2018-06-15T13:17:48.779Z,1019.55
2018-06-15T13:19:16.309Z,1019.57
2018-06-15T13:20:43.955Z,1019.53
2018-06-15T13:22:11.468Z,1019.55
2018-06-15T13:23:39.054Z,1019.56
2018-06-15T13:25:06.683Z,1019.58
2018-06-15T13:26:34.143Z,1019.55
2018-06-15T13:28:01.740Z,1019.57
2018-06-15T13:29:29.443Z,1019.61
2018-06-15T13:30:56.970Z,1019.58
2018-06-15T13:32:24.590Z,1019.54
2018-06-15T13:33:52.000Z,1019.53
2018-06-15T13:35:19.558Z,1019.53
2018-06-15T13:36:47.212Z,1019.60
2018-06-15T13:38:14.853Z,1019.61
2018-06-15T13:39:42.405Z,1019.59
2018-06-15T13:41:09.831Z,1019.56
2018-06-15T13:42:37.528Z,1019.58
2018-06-15T13:44:04.871Z,1019.60
2018-06-15T13:45:32.318Z,1019.64
2018-06-15T13:46:59.889Z,1019.63
2018-06-15T13:48:27.519Z,1019.57
2018-06-15T13:49:55.114Z,1019.55
2018-06-15T13:51:22.590Z,1019.59
2018-06-15T13:52:50.126Z,1019.59
2018-06-15T13:54:17.674Z,1019.61
2018-06-15T13:55:45.128Z,1019.58
2018-06-15T13:57:12.684Z,1019.57
2018-06-15T13:58:40.323Z,1019.59
2018-06-15T14:00:07.767Z,1019.60
2018-06-15T14:01:35.453Z,1019.60
2018-06-15T14:03:03.007Z,1019.59
2018-06-15T14:04:30.500Z,1019.58
2018-06-15T14:05:58.087Z,1019.61
2018-06-15T14:07:25.506Z,1019.64
2018-06-15T14:08:53.125Z,1019.65
2018-06-15T14:10:20.875Z,1019.60
2018-06-15T14:11:48.479Z,1019.61
2018-06-15T14:13:16.109Z,1019.58
2018-06-15T14:14:43.587Z,1019.59
2018-06-15T14:16:11.257Z,1019.59
2018-06-15T14:17:38.787Z,1019.63
2018-06-15T14:19:06.331Z,1019.63
2018-06-15T14:20:34.032Z,1019.63
2018-06-15T14:22:01.562Z,1019.66
2018-06-15T14:23:29.134Z,1019.65
2018-06-15T14:24:56.595Z,1019.67
2018-06-15T14:26:24.221Z,1019.66
2018-06-15T14:27:51.833Z,1019.65
2018-06-15T14:29:19.190Z,1019.62
2018-06-15T14:30:46.943Z,1019.61
2018-06-15T14:32:14.368Z,1019.61
2018-06-15T14:33:42.202Z,1019.63
2018-06-15T14:35:09.617Z,1019.66
2018-06-15T14:36:37.327Z,1019.68
2018-06-15T14:38:04.774Z,1019.68
2018-06-15T14:39:32.465Z,1019.64
2018-06-15T14:40:59.997Z,1019.66
2018-06-15T14:42:27.625Z,1019.66
2018-06-15T14:43:55.256Z,1019.69
2018-06-15T14:45:22.872Z,1019.72
2018-06-15T14:46:50.523Z,1019.74
2018-06-15T14:48:17.991Z,1019.77
2018-06-15T14:49:45.667Z,1019.75
2018-06-15T14:51:13.288Z,1019.74
2018-06-15T14:52:40.789Z,1019.78
2018-06-15T14:54:08.279Z,1019.79
2018-06-15T14:55:35.749Z,1019.84
2018-06-15T14:57:03.112Z,1019.80
2018-06-15T14:58:30.721Z,1019.80
2018-06-15T14:59:58.406Z,1019.78
2018-06-15T15:01:25.993Z,1019.78
2018-06-15T15:02:53.569Z,1019.78
2018-06-15T15:04:21.225Z,1019.75
2018-06-15T15:05:48.898Z,1019.73
2018-06-15T15:07:16.439Z,1019.76
2018-06-15T15:08:43.978Z,1019.78
2018-06-15T15:10:11.253Z,1019.80
2018-06-15T15:11:39.002Z,1019.79
2018-06-15T15:13:06.701Z,1019.79
2018-06-15T15:14:34.188Z,1019.74
2018-06-15T15:16:01.749Z,1019.76
2018-06-15T15:17:29.387Z,1019.75
2018-06-15T15:18:56.758Z,1019.79
2018-06-15T15:20:24.154Z,1019.78
2018-06-15T15:21:51.754Z,1019.79
2018-06-15T15:23:19.410Z,1019.82
2018-06-15T15:24:46.920Z,1019.83
2018-06-15T15:26:14.491Z,1019.82
2018-06-15T15:27:41.795Z,1019.79
2018-06-15T15:29:09.462Z,1019.78
2018-06-15T15:30:36.933Z,1019.78
2018-06-15T15:32:04.444Z,1019.80
2018-06-15T15:33:32.028Z,1019.82
2018-06-15T15:34:59.501Z,1019.81
2018-06-15T15:36:27.044Z,1019.81
2018-06-15T15:37:54.494Z,1019.81
2018-06-15T15:39:21.869Z,1019.80
2018-06-15T15:40:49.602Z,1019.83
2018-06-15T15:42:17.286Z,1019.81
2018-06-15T15:43:44.609Z,1019.83
2018-06-15T15:45:12.097Z,1019.84
2018-06-15T15:46:39.656Z,1019.83
2018-06-15T15:48:07.154Z,1019.83
2018-06-15T15:49:34.916Z,1019.80
2018-06-15T15:51:02.447Z,1019.78
2018-06-15T15:52:29.985Z,1019.78
2018-06-15T15:53:57.486Z,1019.82
2018-06-15T15:55:24.953Z,1019.87
2018-06-15T15:56:52.417Z,1019.88
2018-06-15T15:58:20.090Z,1019.92
2018-06-15T15:59:47.658Z,1019.94
2018-06-15T16:01:15.173Z,1019.92
2018-06-15T16:02:42.634Z,1019.89
2018-06-15T16:04:10.014Z,1019.91
2018-06-15T16:05:37.645Z,1019.92
2018-06-15T16:07:04.921Z,1019.88
2018-06-15T16:08:32.516Z,1019.87
2018-06-15T16:10:00.576Z,1019.85
2018-06-15T16:11:28.152Z,1019.84
2018-06-15T16:12:55.916Z,1019.82
2018-06-15T16:14:23.072Z,1019.84
2018-06-15T16:15:50.649Z,1019.85
2018-06-15T16:17:18.170Z,1019.85
2018-06-15T16:18:45.590Z,1019.84
2018-06-15T16:20:13.095Z,1019.84
2018-06-15T16:21:40.515Z,1019.82
2018-06-15T16:23:07.926Z,1019.78
2018-06-15T16:24:35.295Z,1019.79
2018-06-15T16:26:02.771Z,1019.80
2018-06-15T16:27:30.453Z,1019.82
2018-06-15T16:28:57.925Z,1019.78
2018-06-15T16:30:25.309Z,1019.80
2018-06-15T16:31:52.979Z,1019.85
2018-06-15T16:33:20.484Z,1019.84
2018-06-15T16:34:48.028Z,1019.88
2018-06-15T16:36:15.646Z,1019.86
2018-06-15T16:37:43.256Z,1019.86
2018-06-15T16:39:10.521Z,1019.85
2018-06-15T16:40:38.006Z,1019.83
2018-06-15T16:42:05.514Z,1019.86
2018-06-15T16:43:32.840Z,1019.86
2018-06-15T16:45:00.408Z,1019.86
2018-06-15T16:46:28.010Z,1019.86
2018-06-15T16:47:55.698Z,1019.88
2018-06-15T16:49:22.942Z,1019.91
2018-06-15T16:50:50.290Z,1019.89
2018-06-15T16:52:17.832Z,1019.88
2018-06-15T16:53:45.345Z,1019.89
2018-06-15T16:55:12.831Z,1019.93
2018-06-15T16:56:40.206Z,1019.93
2018-06-15T16:58:07.728Z,1019.94
2018-06-15T16:59:35.027Z,1019.94
2018-06-15T17:01:02.387Z,1019.95
2018-06-15T17:02:30.094Z,1019.96
2018-06-15T17:03:57.732Z,1019.95
2018-06-15T17:05:25.393Z,1019.93
2018-06-15T17:06:53.075Z,1019.92
2018-06-15T17:08:20.628Z,1019.96
2018-06-15T17:09:48.029Z,1019.97
2018-06-15T17:11:15.525Z,1019.96
2018-06-15T17:12:43.042Z,1019.98
2018-06-15T17:14:10.579Z,1019.98
2018-06-15T17:15:38.113Z,1019.98
2018-06-15T17:17:05.690Z,1020.01
2018-06-15T17:18:33.062Z,1020.00
2018-06-15T17:20:00.630Z,1020.11
2018-06-15T17:21:28.222Z,1020.27
2018-06-15T17:22:55.519Z,1020.31
2018-06-15T17:24:22.999Z,1020.34
2018-06-15T17:25:50.493Z,1020.34
2018-06-15T17:27:17.889Z,1020.37
2018-06-15T17:28:45.312Z,1020.39
2018-06-15T17:30:12.770Z,1020.41
2018-06-15T17:31:40.046Z,1020.41
2018-06-15T17:33:07.484Z,1020.43
2018-06-15T17:34:34.802Z,1020.45
2018-06-15T17:36:02.154Z,1020.47
2018-06-15T17:37:29.593Z,1020.46
2018-06-15T17:38:56.957Z,1020.49